Time;durP1;ratioP1;P1;durP2;ratioP2;P2;SDS_P1;SDS_P2;PMS_P1;PMS_P2;Temp;Humidity;BMP_temperature;BMP_pressure;BME280_temperature;BME280_humidity;BME280_pressure;Samples;Min_cycle;Max_cycle;Signal;HPM_P1;HPM_P2
2023/10/16 00:01:27;;;;;;;2.28;1.90;;;;;;;;;;5033569;28;20045;-74
2023/10/16 00:03:52;;;;;;;2.72;1.95;;;;;;;;;;5053256;28;20033;-75
2023/10/16 00:06:18;;;;;;;3.13;1.85;;;;;;;;;;5035422;28;20063;-74
2023/10/16 00:09:29;;;;;;;1.85;1.65;;;;;;;;;;5053210;28;20099;-75
2023/10/16 00:11:30;;;;;;;2.85;1.60;;;;;;;;;;5039408;28;20049;-74
2023/10/16 00:13:56;;;;;;;1.67;1.58;;;;;;;;;;5053096;28;20036;-74
2023/10/16 00:16:23;;;;;;;2.80;1.80;;;;;;;;;;5053149;28;20498;-74
2023/10/16 00:18:50;;;;;;;2.05;1.60;;;;;;;;;;5055041;28;20103;-73
2023/10/16 00:21:16;;;;;;;2.25;1.60;;;;;;;;;;5056990;28;20166;-73
2023/10/16 00:23:42;;;;;;;1.63;1.50;;;;;;;;;;5056800;28;20475;-75
2023/10/16 00:26:09;;;;;;;2.25;1.73;;;;;;;;;;5038860;28;20029;-73
2023/10/16 00:28:35;;;;;;;2.42;1.48;;;;;;;;;;5056737;28;20025;-74
2023/10/16 00:31:03;;;;;;;3.25;1.77;;;;;;;;;;5039028;28;20021;-74
2023/10/16 00:33:28;;;;;;;2.33;1.73;;;;;;;;;;5038928;28;20467;-73
2023/10/16 00:35:54;;;;;;;2.05;1.40;;;;;;;;;;5056874;28;20024;-74
2023/10/16 00:38:22;;;;;;;2.65;1.50;;;;;;;;;;5056500;28;20482;-74
2023/10/16 00:43:33;;;;;;;3.65;1.55;;;;;;;;;;5055119;28;20162;-74
2023/10/16 00:46:06;;;;;;;1.60;1.20;;;;;;;;;;5056500;28;20064;-74
2023/10/16 00:48:32;;;;;;;1.65;1.30;;;;;;;;;;5038763;28;20059;-74
2023/10/16 00:51:02;;;;;;;2.05;1.38;;;;;;;;;;5056410;28;20403;-73
2023/10/16 00:53:28;;;;;;;1.70;1.60;;;;;;;;;;5056919;28;20154;-74
2023/10/16 00:55:55;;;;;;;1.75;1.33;;;;;;;;;;5056232;28;20467;-73
2023/10/16 00:58:21;;;;;;;1.65;1.40;;;;;;;;;;5038260;28;20399;-74
2023/10/16 01:00:48;;;;;;;1.40;1.30;;;;;;;;;;5038116;28;20049;-74
2023/10/16 01:03:14;;;;;;;1.40;1.30;;;;;;;;;;5054425;28;20039;-74
2023/10/16 01:05:42;;;;;;;3.33;1.40;;;;;;;;;;5055671;28;20119;-74
2023/10/16 01:08:10;;;;;;;1.48;1.38;;;;;;;;;;5038311;28;20056;-74
2023/10/16 01:10:48;;;;;;;1.50;1.30;;;;;;;;;;5038012;28;20021;-73
2023/10/16 01:13:14;;;;;;;1.77;1.33;;;;;;;;;;5037985;28;20033;-73
2023/10/16 01:15:50;;;;;;;3.20;1.40;;;;;;;;;;5021382;28;20056;-73
2023/10/16 01:18:16;;;;;;;2.70;1.40;;;;;;;;;;5055999;28;20028;-74
2023/10/16 01:20:48;;;;;;;2.47;1.30;;;;;;;;;;5054492;28;20471;-75
2023/10/16 01:23:18;;;;;;;1.42;1.33;;;;;;;;;;5054465;28;20021;-75
2023/10/16 01:25:46;;;;;;;1.77;1.30;;;;;;;;;;5055889;28;20087;-75
2023/10/16 01:28:12;;;;;;;2.47;1.30;;;;;;;;;;5037699;28;20021;-75
2023/10/16 01:30:41;;;;;;;1.52;1.40;;;;;;;;;;5055497;28;20032;-76
2023/10/16 01:33:07;;;;;;;1.95;1.20;;;;;;;;;;5037527;28;20377;-76
2023/10/16 01:35:36;;;;;;;2.60;1.30;;;;;;;;;;5056100;28;20090;-76
2023/10/16 01:38:15;;;;;;;1.30;1.20;;;;;;;;;;5037567;28;20119;-76
2023/10/16 01:41:09;;;;;;;3.20;1.30;;;;;;;;;;5055461;28;20029;-76
2023/10/16 01:43:37;;;;;;;1.65;1.17;;;;;;;;;;5037622;28;20037;-75
2023/10/16 01:46:10;;;;;;;1.83;1.15;;;;;;;;;;5055276;28;20025;-76
2023/10/16 01:48:44;;;;;;;1.10;1.00;;;;;;;;;;5020823;28;20029;-75
2023/10/16 01:51:19;;;;;;;3.70;1.23;;;;;;;;;;5037267;28;20037;-77
2023/10/16 01:53:47;;;;;;;1.50;1.17;;;;;;;;;;5055129;28;20029;-77
2023/10/16 01:56:14;;;;;;;2.28;1.30;;;;;;;;;;5053855;28;20053;-76
2023/10/16 01:58:43;;;;;;;1.27;1.17;;;;;;;;;;5037091;28;20143;-76
2023/10/16 02:01:12;;;;;;;2.73;1.30;;;;;;;;;;5035907;28;20180;-75
2023/10/16 02:03:38;;;;;;;2.92;1.10;;;;;;;;;;5000969;28;20022;-75
2023/10/16 02:06:04;;;;;;;2.33;0.90;;;;;;;;;;5017181;28;20025;-75
2023/10/16 02:08:30;;;;;;;1.13;1.00;;;;;;;;;;5000738;28;20040;-75
2023/10/16 02:10:57;;;;;;;1.58;0.93;;;;;;;;;;5098100;22;20078;-75
2023/10/16 02:13:23;;;;;;;2.22;1.20;;;;;;;;;;5080269;28;20032;-75
2023/10/16 02:15:48;;;;;;;1.33;1.00;;;;;;;;;;5096961;28;20042;-76
2023/10/16 02:18:22;;;;;;;2.38;0.95;;;;;;;;;;5115722;28;20019;-76
2023/10/16 02:20:49;;;;;;;1.30;0.80;;;;;;;;;;5103863;22;20078;-75
2023/10/16 02:27:12;;;;;;;2.42;1.10;;;;;;;;;;5054679;23;20503;-74
2023/10/16 02:29:45;;;;;;;2.30;0.90;;;;;;;;;;5036354;28;20111;-74
2023/10/16 02:32:12;;;;;;;2.40;1.00;;;;;;;;;;5054469;28;20033;-74
2023/10/16 02:34:37;;;;;;;1.55;0.90;;;;;;;;;;5036328;28;20116;-75
2023/10/16 02:37:06;;;;;;;1.77;1.00;;;;;;;;;;5036831;28;20068;-75
2023/10/16 02:39:37;;;;;;;1.77;0.93;;;;;;;;;;5054570;28;20017;-75
2023/10/16 02:42:08;;;;;;;1.38;1.00;;;;;;;;;;5053864;28;20032;-75
2023/10/16 02:44:38;;;;;;;1.67;1.00;;;;;;;;;;5036452;28;20166;-75
2023/10/16 02:47:06;;;;;;;0.98;0.85;;;;;;;;;;5035645;28;20491;-75
2023/10/16 02:49:33;;;;;;;1.80;0.95;;;;;;;;;;5054134;28;20060;-76
2023/10/16 02:51:59;;;;;;;1.00;0.80;;;;;;;;;;5054353;28;20427;-76
2023/10/16 02:54:24;;;;;;;2.55;0.90;;;;;;;;;;5054000;28;20109;-76
2023/10/16 02:56:54;;;;;;;2.22;1.02;;;;;;;;;;5054114;28;20037;-75
2023/10/16 02:59:19;;;;;;;1.05;0.90;;;;;;;;;;5053791;28;20029;-75
2023/10/16 03:01:46;;;;;;;2.33;1.00;;;;;;;;;;5053881;28;20028;-75
2023/10/16 03:04:15;;;;;;;1.08;0.82;;;;;;;;;;5036203;28;20028;-75
2023/10/16 03:06:41;;;;;;;1.67;0.90;;;;;;;;;;5052595;28;20035;-75
2023/10/16 03:09:25;;;;;;;1.77;1.00;;;;;;;;;;5053813;28;20033;-76
2023/10/16 03:12:04;;;;;;;2.17;0.90;;;;;;;;;;5035840;28;20113;-76
2023/10/16 03:14:35;;;;;;;1.40;0.80;;;;;;;;;;5052345;28;20021;-76
2023/10/16 03:17:08;;;;;;;2.70;1.05;;;;;;;;;;5053622;28;20025;-76
2023/10/16 03:19:34;;;;;;;1.70;1.10;;;;;;;;;;5052302;28;20387;-76
2023/10/16 03:22:04;;;;;;;2.28;1.10;;;;;;;;;;5053376;28;20029;-74
2023/10/16 03:24:29;;;;;;;1.27;0.90;;;;;;;;;;5054094;28;20041;-75
2023/10/16 03:26:57;;;;;;;2.83;1.00;;;;;;;;;;5038817;28;20053;-74
2023/10/16 03:29:24;;;;;;;2.25;0.85;;;;;;;;;;5039001;28;20449;-75
2023/10/16 03:31:49;;;;;;;2.53;1.10;;;;;;;;;;5039023;28;20185;-74
2023/10/16 03:34:14;;;;;;;2.45;1.10;;;;;;;;;;5055352;28;20363;-75
2023/10/16 03:36:41;;;;;;;1.42;1.20;;;;;;;;;;5074031;28;20359;-76
2023/10/16 03:39:10;;;;;;;1.48;1.13;;;;;;;;;;5073463;28;20493;-75
2023/10/16 03:41:39;;;;;;;1.20;0.90;;;;;;;;;;5072125;28;20033;-75
2023/10/16 03:44:17;;;;;;;1.77;1.00;;;;;;;;;;5073685;28;20029;-74
2023/10/16 03:46:42;;;;;;;1.95;1.30;;;;;;;;;;5073378;28;20467;-73
2023/10/16 03:49:08;;;;;;;1.10;1.00;;;;;;;;;;5055367;28;20031;-73
2023/10/16 03:51:34;;;;;;;2.35;1.20;;;;;;;;;;5055257;28;20033;-74
2023/10/16 03:54:02;;;;;;;2.03;1.20;;;;;;;;;;5075719;28;20355;-74
2023/10/16 03:56:30;;;;;;;2.13;0.95;;;;;;;;;;5059522;28;20012;-73
2023/10/16 03:58:57;;;;;;;2.17;1.42;;;;;;;;;;5077310;28;20074;-74
2023/10/16 04:01:29;;;;;;;2.03;1.15;;;;;;;;;;5077095;28;20025;-74
2023/10/16 04:03:57;;;;;;;3.08;1.45;;;;;;;;;;5077369;28;20077;-75
2023/10/16 04:06:24;;;;;;;1.40;1.08;;;;;;;;;;5058866;28;20032;-75
2023/10/16 04:08:51;;;;;;;2.15;1.40;;;;;;;;;;5077226;28;20025;-72
2023/10/16 04:11:17;;;;;;;1.33;1.00;;;;;;;;;;5077293;28;20520;-72
2023/10/16 04:13:49;;;;;;;1.30;1.10;;;;;;;;;;5059228;28;20078;-73
2023/10/16 04:16:30;;;;;;;2.70;1.10;;;;;;;;;;5059756;28;20433;-72
2023/10/16 04:21:44;;;;;;;1.50;1.10;;;;;;;;;;5077250;28;20041;-74
2023/10/16 04:25:19;;;;;;;0.98;0.75;;;;;;;;;;5076858;28;20035;-73
2023/10/16 04:29:46;;;;;;;1.40;0.68;;;;;;;;;;5076861;28;20028;-73
2023/10/16 04:35:04;;;;;;;0.63;0.63;;;;;;;;;;5091913;22;20147;-73
2023/10/16 04:37:36;;;;;;;1.60;0.90;;;;;;;;;;5096661;28;20424;-70
2023/10/16 04:46:15;;;;;;;1.13;0.95;;;;;;;;;;5097243;28;20046;-71
2023/10/16 04:48:51;;;;;;;2.65;0.77;;;;;;;;;;5078605;28;20040;-72
2023/10/16 04:51:19;;;;;;;1.05;0.95;;;;;;;;;;5096723;28;20571;-73
2023/10/16 04:54:13;;;;;;;2.35;1.00;;;;;;;;;;5096568;28;20032;-69
2023/10/16 04:59:47;;;;;;;1.08;0.90;;;;;;;;;;5096505;28;20028;-70
2023/10/16 05:02:33;;;;;;;2.37;0.83;;;;;;;;;;5078080;28;20028;-70
2023/10/16 05:04:59;;;;;;;1.20;1.10;;;;;;;;;;5060887;28;20028;-70
2023/10/16 05:10:12;;;;;;;1.98;1.00;;;;;;;;;;5078013;28;20036;-75
2023/10/16 05:15:41;;;;;;;1.30;1.10;;;;;;;;;;5096072;28;20474;-67
2023/10/16 05:18:12;;;;;;;1.98;1.13;;;;;;;;;;5096822;28;20098;-65
2023/10/16 05:21:16;;;;;;;1.33;1.23;;;;;;;;;;5096568;28;20466;-70
2023/10/16 06:15:47;;;;;;;1.85;1.10;;;;;;;;;;5035068;28;20036;-70
2023/10/16 06:18:12;;;;;;;1.73;1.40;;;;;;;;;;5055679;28;20017;-71
2023/10/16 06:20:40;;;;;;;1.23;1.13;;;;;;;;;;5073557;28;20508;-70
2023/10/16 06:23:10;;;;;;;3.03;1.52;;;;;;;;;;5074499;28;20451;-71
2023/10/16 06:25:36;;;;;;;1.30;1.00;;;;;;;;;;5056613;28;20078;-70
2023/10/16 06:28:08;;;;;;;1.73;1.10;;;;;;;;;;5056466;28;20033;-72
2023/10/16 06:30:37;;;;;;;3.35;1.25;;;;;;;;;;5056015;28;20063;-71
2023/10/16 06:33:04;;;;;;;1.65;1.30;;;;;;;;;;5072807;28;20501;-72
2023/10/16 06:35:30;;;;;;;2.08;0.95;;;;;;;;;;5072128;28;20490;-71
2023/10/16 06:37:55;;;;;;;1.58;1.20;;;;;;;;;;5063246;28;20024;-71
2023/10/16 06:40:27;;;;;;;1.50;1.20;;;;;;;;;;5074201;28;20475;-71
2023/10/16 06:43:11;;;;;;;2.28;1.17;;;;;;;;;;5073951;28;20056;-71
2023/10/16 06:45:41;;;;;;;1.75;1.00;;;;;;;;;;5056131;28;20433;-73
2023/10/16 06:48:08;;;;;;;3.93;1.07;;;;;;;;;;5055630;28;20474;-72
2023/10/16 06:50:39;;;;;;;4.47;1.10;;;;;;;;;;5073853;28;20028;-72
2023/10/16 06:53:05;;;;;;;2.53;1.50;;;;;;;;;;5056038;28;20066;-70
2023/10/16 06:55:31;;;;;;;1.88;1.00;;;;;;;;;;5055763;28;20455;-72
2023/10/16 06:57:56;;;;;;;1.33;0.90;;;;;;;;;;5055841;28;20026;-72
2023/10/16 07:00:32;;;;;;;3.28;1.45;;;;;;;;;;5073580;28;20403;-74
2023/10/16 07:03:01;;;;;;;1.25;1.02;;;;;;;;;;5055284;28;20090;-71
2023/10/16 07:05:42;;;;;;;1.20;1.08;;;;;;;;;;5073309;28;20029;-66
2023/10/16 07:08:09;;;;;;;1.40;0.93;;;;;;;;;;5073190;28;20028;-71
2023/10/16 07:10:41;;;;;;;1.80;1.17;;;;;;;;;;5072862;28;20504;-70
2023/10/16 07:13:09;;;;;;;1.38;1.20;;;;;;;;;;5054942;28;20445;-73
2023/10/16 07:15:35;;;;;;;2.38;0.93;;;;;;;;;;5055076;28;20016;-71
2023/10/16 07:18:13;;;;;;;2.10;1.02;;;;;;;;;;5055162;28;20513;-72
2023/10/16 07:20:53;;;;;;;3.28;0.80;;;;;;;;;;5073803;28;20025;-72
2023/10/16 07:23:20;;;;;;;1.83;0.80;;;;;;;;;;5074195;28;20036;-72
2023/10/16 07:25:57;;;;;;;1.70;1.10;;;;;;;;;;5073594;28;20471;-72
2023/10/16 07:28:22;;;;;;;1.45;0.90;;;;;;;;;;5073531;28;20028;-71
2023/10/16 07:30:48;;;;;;;1.30;0.90;;;;;;;;;;5073502;28;20359;-72
2023/10/16 07:33:16;;;;;;;1.30;0.75;;;;;;;;;;5066341;22;20063;-71
2023/10/16 07:35:45;;;;;;;3.22;1.00;;;;;;;;;;5093620;28;20032;-72
2023/10/16 07:38:20;;;;;;;2.40;1.20;;;;;;;;;;5092298;28;20020;-72
2023/10/16 07:40:52;;;;;;;1.55;1.08;;;;;;;;;;5093776;28;20032;-72
2023/10/16 07:43:26;;;;;;;1.85;1.10;;;;;;;;;;5092466;28;20035;-72
2023/10/16 07:45:53;;;;;;;1.55;1.08;;;;;;;;;;5092403;28;20111;-72
2023/10/16 07:48:20;;;;;;;2.97;1.30;;;;;;;;;;5093683;28;20363;-72
2023/10/16 07:50:50;;;;;;;1.55;1.08;;;;;;;;;;5093629;28;20103;-71
2023/10/16 07:53:17;;;;;;;2.15;0.95;;;;;;;;;;5092291;28;20035;-72
2023/10/16 07:55:52;;;;;;;2.63;1.65;;;;;;;;;;5094130;28;20121;-72
2023/10/16 07:58:23;;;;;;;2.35;1.27;;;;;;;;;;5093827;28;20107;-72
2023/10/16 08:00:59;;;;;;;1.77;1.35;;;;;;;;;;5093855;28;20036;-72
2023/10/16 08:03:26;;;;;;;2.45;1.60;;;;;;;;;;5093499;28;20046;-71
2023/10/16 08:05:52;;;;;;;3.42;1.40;;;;;;;;;;5092181;28;20482;-71
2023/10/16 08:08:25;;;;;;;2.55;1.10;;;;;;;;;;5092803;28;20031;-71
2023/10/16 08:10:52;;;;;;;3.70;1.48;;;;;;;;;;5090353;28;20099;-73
2023/10/16 08:13:18;;;;;;;1.85;1.23;;;;;;;;;;5084184;28;20040;-71
2023/10/16 08:15:49;;;;;;;1.15;1.02;;;;;;;;;;5073234;28;20029;-71
2023/10/16 08:18:15;;;;;;;1.65;1.08;;;;;;;;;;5072513;28;20425;-72
2023/10/16 08:23:38;;;;;;;2.72;1.65;;;;;;;;;;5073068;28;20035;-71
2023/10/16 08:28:48;;;;;;;4.47;1.33;;;;;;;;;;5071732;28;20470;-71
2023/10/16 08:31:25;;;;;;;2.22;1.13;;;;;;;;;;5072813;28;20028;-72
2023/10/16 08:33:54;;;;;;;4.05;1.40;;;;;;;;;;5082045;28;20070;-72
2023/10/16 08:36:20;;;;;;;2.17;1.38;;;;;;;;;;5092994;28;20064;-72
2023/10/16 08:38:52;;;;;;;2.67;1.13;;;;;;;;;;5092700;28;20522;-71
2023/10/16 08:41:53;;;;;;;1.98;1.15;;;;;;;;;;5078074;28;20498;-71
2023/10/16 08:44:19;;;;;;;5.82;1.67;;;;;;;;;;5096149;28;20028;-71
2023/10/16 08:46:45;;;;;;;3.83;1.65;;;;;;;;;;5096144;28;20031;-72
2023/10/16 08:49:10;;;;;;;3.03;1.30;;;;;;;;;;5095974;28;20475;-72
2023/10/16 08:51:36;;;;;;;1.50;1.27;;;;;;;;;;5096456;28;20474;-71
2023/10/16 08:54:05;;;;;;;4.35;2.40;;;;;;;;;;5079439;28;20550;-71
2023/10/16 08:56:31;;;;;;;2.50;1.35;;;;;;;;;;5096692;28;20032;-71
2023/10/16 08:58:58;;;;;;;2.20;1.70;;;;;;;;;;5096424;28;20119;-72
2023/10/16 09:01:27;;;;;;;1.27;1.00;;;;;;;;;;5096716;28;20035;-71
2023/10/16 09:03:57;;;;;;;1.02;0.95;;;;;;;;;;5095971;28;20036;-72
2023/10/16 09:06:25;;;;;;;2.95;1.60;;;;;;;;;;5096370;28;20024;-71
2023/10/16 09:08:51;;;;;;;3.38;1.27;;;;;;;;;;5078176;28;20073;-72
2023/10/16 09:11:19;;;;;;;1.98;1.20;;;;;;;;;;5061344;28;20040;-71
2023/10/16 09:13:49;;;;;;;2.60;1.27;;;;;;;;;;5096490;28;20036;-72
2023/10/16 09:16:30;;;;;;;1.13;1.02;;;;;;;;;;5080130;23;20451;-72
2023/10/16 09:18:58;;;;;;;2.08;1.20;;;;;;;;;;5096372;28;20035;-73
2023/10/16 09:21:30;;;;;;;1.58;1.30;;;;;;;;;;5095091;28;20034;-73
2023/10/16 09:24:28;;;;;;;2.05;1.50;;;;;;;;;;5111020;22;20028;-71
2023/10/16 09:26:57;;;;;;;2.13;1.08;;;;;;;;;;5101186;23;20070;-72
2023/10/16 09:29:26;;;;;;;3.47;1.30;;;;;;;;;;5137104;27;20042;-72
2023/10/16 09:31:51;;;;;;;1.50;1.00;;;;;;;;;;5101343;27;20035;-72
2023/10/16 09:34:25;;;;;;;2.50;0.98;;;;;;;;;;5136754;27;20023;-72
2023/10/16 09:39:40;;;;;;;9.15;4.65;;;;;;;;;;5105653;22;20054;-71
2023/10/16 09:42:11;;;;;;;1.70;1.30;;;;;;;;;;5134745;27;20040;-72
2023/10/16 09:44:40;;;;;;;1.17;0.93;;;;;;;;;;5116428;27;20476;-74
2023/10/16 09:47:30;;;;;;;2.55;1.65;;;;;;;;;;5117385;27;20384;-73
2023/10/16 09:49:58;;;;;;;2.05;1.30;;;;;;;;;;5136452;27;20031;-73
2023/10/16 09:52:23;;;;;;;2.28;1.40;;;;;;;;;;5136374;27;20043;-74
2023/10/16 09:54:50;;;;;;;3.28;1.52;;;;;;;;;;5118338;27;20019;-72
2023/10/16 09:57:22;;;;;;;2.17;1.40;;;;;;;;;;5117851;27;20031;-72
2023/10/16 09:59:54;;;;;;;2.88;1.30;;;;;;;;;;5136196;27;20028;-73
2023/10/16 10:02:25;;;;;;;1.73;1.33;;;;;;;;;;5136209;27;20038;-72
2023/10/16 10:05:03;;;;;;;2.58;1.33;;;;;;;;;;5100738;27;20031;-72
2023/10/16 10:07:35;;;;;;;2.13;1.48;;;;;;;;;;5136452;27;20027;-69
2023/10/16 10:10:39;;;;;;;4.80;1.95;;;;;;;;;;5136375;27;20110;-70
2023/10/16 10:12:48;;;;;;;2.05;1.38;;;;;;;;;;5135649;27;20106;-72
2023/10/16 10:15:23;;;;;;;2.00;1.27;;;;;;;;;;5135960;27;20067;-71
2023/10/16 10:17:52;;;;;;;2.17;1.45;;;;;;;;;;5136189;27;20381;-71
2023/10/16 10:20:23;;;;;;;3.92;1.77;;;;;;;;;;5135870;27;20087;-72
2023/10/16 10:22:53;;;;;;;2.08;1.30;;;;;;;;;;5136135;27;20023;-72
2023/10/16 10:25:26;;;;;;;1.85;1.30;;;;;;;;;;5117453;27;20465;-72
2023/10/16 10:28:08;;;;;;;2.40;1.58;;;;;;;;;;5117758;27;20027;-71
2023/10/16 10:30:37;;;;;;;3.15;1.52;;;;;;;;;;5100272;27;20039;-72
2023/10/16 10:33:03;;;;;;;2.10;1.13;;;;;;;;;;5135552;27;20028;-72
2023/10/16 10:35:29;;;;;;;1.77;1.10;;;;;;;;;;5136057;27;20122;-71
2023/10/16 10:38:07;;;;;;;2.92;1.15;;;;;;;;;;5135771;27;20030;-71
2023/10/16 10:40:33;;;;;;;2.15;1.23;;;;;;;;;;5135388;27;20115;-72
2023/10/16 10:43:02;;;;;;;2.28;1.00;;;;;;;;;;5135622;27;20054;-71
2023/10/16 10:45:35;;;;;;;1.27;1.10;;;;;;;;;;5135682;27;20038;-70
2023/10/16 10:48:09;;;;;;;2.05;1.20;;;;;;;;;;5135273;27;20484;-70
2023/10/16 10:50:38;;;;;;;3.00;1.23;;;;;;;;;;5138477;22;20054;-73
2023/10/16 10:53:09;;;;;;;1.77;1.35;;;;;;;;;;5112861;28;20028;-74
2023/10/16 10:55:36;;;;;;;3.05;1.40;;;;;;;;;;5112709;28;20032;-74
2023/10/16 10:58:11;;;;;;;3.95;1.58;;;;;;;;;;5112704;28;20470;-73
2023/10/16 11:00:44;;;;;;;3.45;1.77;;;;;;;;;;5112689;28;20470;-73
2023/10/16 11:03:22;;;;;;;1.60;1.33;;;;;;;;;;5096706;28;20034;-73
2023/10/16 11:05:47;;;;;;;3.78;2.00;;;;;;;;;;5114778;28;20164;-72
2023/10/16 11:10:41;;;;;;;5.60;2.45;;;;;;;;;;5114659;28;20032;-74
2023/10/16 11:13:08;;;;;;;2.97;1.83;;;;;;;;;;5096052;28;20103;-74
2023/10/16 11:15:34;;;;;;;5.35;1.85;;;;;;;;;;5096148;28;20024;-72
2023/10/16 11:18:08;;;;;;;4.07;1.88;;;;;;;;;;5096111;28;20355;-73
2023/10/16 11:20:37;;;;;;;4.90;2.10;;;;;;;;;;5114227;28;20054;-74
2023/10/16 11:23:25;;;;;;;5.47;2.45;;;;;;;;;;5114025;28;20478;-72
2023/10/16 11:25:52;;;;;;;4.25;1.80;;;;;;;;;;5095796;28;20031;-73
2023/10/16 11:28:22;;;;;;;4.45;2.38;;;;;;;;;;5114351;28;20024;-71
2023/10/16 11:30:49;;;;;;;2.72;2.00;;;;;;;;;;5114698;28;20043;-73
2023/10/16 11:33:24;;;;;;;4.20;2.17;;;;;;;;;;5114243;28;20031;-71
2023/10/16 11:35:50;;;;;;;3.33;2.17;;;;;;;;;;5113985;28;20400;-71
2023/10/16 11:38:28;;;;;;;3.75;2.17;;;;;;;;;;5113988;28;20019;-72
2023/10/16 11:40:54;;;;;;;4.55;2.55;;;;;;;;;;5095764;28;20465;-72
2023/10/16 11:43:21;;;;;;;4.63;2.00;;;;;;;;;;5114084;28;20085;-72
2023/10/16 11:45:53;;;;;;;4.22;1.90;;;;;;;;;;5114276;28;20020;-72
2023/10/16 11:51:08;;;;;;;3.92;1.77;;;;;;;;;;5135324;22;21722;-72
2023/10/16 11:53:36;;;;;;;5.10;2.00;;;;;;;;;;5098920;28;20031;-71
2023/10/16 11:56:01;;;;;;;3.58;1.88;;;;;;;;;;5134921;28;20051;-71
2023/10/16 11:58:27;;;;;;;3.00;1.33;;;;;;;;;;5116140;28;20070;-72
2023/10/16 12:03:37;;;;;;;2.90;1.58;;;;;;;;;;5071119;22;20067;-72
2023/10/16 12:06:07;;;;;;;2.67;1.73;;;;;;;;;;5050922;28;20083;-73
2023/10/16 12:08:32;;;;;;;1.93;1.47;;;;;;;;;;5033548;28;20391;-71
2023/10/16 12:11:01;;;;;;;1.52;1.10;;;;;;;;;;5053178;28;20029;-70
2023/10/16 12:13:27;;;;;;;2.60;1.33;;;;;;;;;;5053629;28;20041;-71
2023/10/16 12:15:53;;;;;;;2.70;1.75;;;;;;;;;;5055745;28;20115;-72
2023/10/16 12:18:21;;;;;;;2.35;1.70;;;;;;;;;;5053877;28;20116;-71
2023/10/16 12:20:47;;;;;;;2.55;1.77;;;;;;;;;;5055052;28;20021;-71
2023/10/16 12:23:12;;;;;;;2.25;1.80;;;;;;;;;;5054943;28;20112;-72
2023/10/16 12:25:39;;;;;;;2.85;2.38;;;;;;;;;;5055096;28;20112;-73
2023/10/16 12:28:08;;;;;;;7.28;2.38;;;;;;;;;;5055840;28;20033;-71
2023/10/16 12:30:36;;;;;;;6.15;2.35;;;;;;;;;;5037791;28;20057;-73
2023/10/16 12:33:05;;;;;;;4.80;2.35;;;;;;;;;;5055491;28;20041;-72
2023/10/16 12:35:30;;;;;;;5.05;2.28;;;;;;;;;;5038067;28;20051;-72
2023/10/16 12:37:56;;;;;;;6.35;2.80;;;;;;;;;;5055448;28;20480;-72
2023/10/16 12:40:24;;;;;;;4.60;2.47;;;;;;;;;;5057363;28;20461;-71
2023/10/16 12:42:53;;;;;;;5.15;2.45;;;;;;;;;;5056375;28;20158;-71
2023/10/16 12:45:22;;;;;;;3.38;2.08;;;;;;;;;;5056763;28;20087;-72
2023/10/16 12:47:48;;;;;;;3.05;1.67;;;;;;;;;;5022019;28;20040;-71
2023/10/16 12:50:16;;;;;;;6.95;3.03;;;;;;;;;;5056974;28;20025;-71
2023/10/16 12:52:42;;;;;;;4.30;3.17;;;;;;;;;;5038344;28;20037;-71
2023/10/16 12:55:09;;;;;;;4.38;2.45;;;;;;;;;;5056280;28;20032;-71
2023/10/16 12:57:34;;;;;;;2.47;2.17;;;;;;;;;;5056614;28;20585;-73
2023/10/16 13:00:00;;;;;;;2.33;2.00;;;;;;;;;;5056238;28;20029;-73
2023/10/16 13:02:28;;;;;;;3.35;2.30;;;;;;;;;;5054636;28;20040;-74
2023/10/16 13:04:55;;;;;;;2.40;2.20;;;;;;;;;;5055951;28;20445;-73
2023/10/16 13:07:22;;;;;;;3.90;1.85;;;;;;;;;;5056114;28;20108;-73
2023/10/16 13:09:47;;;;;;;3.90;2.00;;;;;;;;;;5037800;28;20410;-74
2023/10/16 13:12:13;;;;;;;4.43;2.17;;;;;;;;;;5056519;28;20024;-72
2023/10/16 13:14:39;;;;;;;4.18;1.70;;;;;;;;;;5038657;28;20028;-73
2023/10/16 13:17:08;;;;;;;2.40;1.48;;;;;;;;;;5056171;28;20036;-72
2023/10/16 13:19:34;;;;;;;1.60;1.30;;;;;;;;;;5056157;28;20360;-72
2023/10/16 13:22:07;;;;;;;2.30;1.50;;;;;;;;;;5055809;28;20040;-71
2023/10/16 13:24:34;;;;;;;4.97;1.80;;;;;;;;;;5055937;28;20037;-72
2023/10/16 13:26:59;;;;;;;5.47;3.08;;;;;;;;;;5037792;28;20071;-71
2023/10/16 13:29:25;;;;;;;5.85;2.70;;;;;;;;;;5055653;28;20422;-72
2023/10/16 13:31:53;;;;;;;4.18;2.40;;;;;;;;;;5055757;28;20029;-71
2023/10/16 13:34:19;;;;;;;5.00;1.90;;;;;;;;;;5055590;28;20028;-72
2023/10/16 13:37:00;;;;;;;2.95;1.85;;;;;;;;;;5055499;28;20033;-73
2023/10/16 13:39:26;;;;;;;5.40;3.72;;;;;;;;;;5054144;28;20036;-72
2023/10/16 13:41:52;;;;;;;4.47;2.50;;;;;;;;;;5055782;28;20021;-73
2023/10/16 13:44:22;;;;;;;5.05;2.42;;;;;;;;;;5056159;28;20037;-72
2023/10/16 13:46:49;;;;;;;2.95;2.22;;;;;;;;;;5055667;28;20036;-72
2023/10/16 13:49:16;;;;;;;4.75;2.70;;;;;;;;;;5055279;28;20041;-72
2023/10/16 13:51:42;;;;;;;6.28;3.55;;;;;;;;;;5055729;28;20033;-73
2023/10/16 13:54:11;;;;;;;8.40;3.33;;;;;;;;;;5037817;28;20028;-73
2023/10/16 13:56:38;;;;;;;3.53;2.03;;;;;;;;;;5055411;28;20065;-72
2023/10/16 13:59:03;;;;;;;5.20;2.22;;;;;;;;;;5037232;28;20025;-72
2023/10/16 14:01:30;;;;;;;2.90;1.70;;;;;;;;;;5053992;28;20107;-72
2023/10/16 14:03:58;;;;;;;2.95;1.67;;;;;;;;;;5055206;28;20124;-72
2023/10/16 14:06:25;;;;;;;2.20;1.23;;;;;;;;;;5053952;28;20029;-72
2023/10/16 14:08:50;;;;;;;2.63;1.38;;;;;;;;;;5055443;28;20025;-72
2023/10/16 14:11:16;;;;;;;2.45;1.70;;;;;;;;;;5055209;28;20070;-73
2023/10/16 14:13:41;;;;;;;1.70;1.40;;;;;;;;;;5053921;28;20044;-72
2023/10/16 14:16:18;;;;;;;2.33;1.60;;;;;;;;;;5055027;28;20098;-71
2023/10/16 14:18:43;;;;;;;3.50;2.28;;;;;;;;;;5055383;28;20031;-71
2023/10/16 14:21:13;;;;;;;5.97;3.45;;;;;;;;;;5054754;28;20446;-71
2023/10/16 14:23:39;;;;;;;8.30;4.63;;;;;;;;;;5020290;28;20083;-71
2023/10/16 14:26:11;;;;;;;15.15;5.25;;;;;;;;;;5054773;28;20048;-71
2023/10/16 14:28:51;;;;;;;7.70;4.32;;;;;;;;;;5020282;28;20079;-73
2023/10/16 14:31:20;;;;;;;6.45;3.63;;;;;;;;;;5036748;28;20112;-73
2023/10/16 14:33:49;;;;;;;4.17;2.50;;;;;;;;;;5036638;28;20032;-73
2023/10/16 14:36:16;;;;;;;3.92;2.10;;;;;;;;;;5054397;28;20025;-72
2023/10/16 14:38:43;;;;;;;4.90;2.17;;;;;;;;;;5036479;28;20025;-73
2023/10/16 14:41:09;;;;;;;5.82;2.00;;;;;;;;;;5054773;28;20379;-73
2023/10/16 14:43:37;;;;;;;2.65;1.70;;;;;;;;;;5054305;28;20036;-70
2023/10/16 14:46:07;;;;;;;2.28;1.85;;;;;;;;;;5054462;28;20025;-71
2023/10/16 14:48:33;;;;;;;1.60;1.50;;;;;;;;;;5054413;28;20075;-71
2023/10/16 14:51:06;;;;;;;2.67;1.92;;;;;;;;;;5054043;28;20134;-72
2023/10/16 14:53:35;;;;;;;1.85;1.60;;;;;;;;;;5054275;28;20037;-71
2023/10/16 14:56:01;;;;;;;2.92;1.67;;;;;;;;;;5054267;28;20137;-72
2023/10/16 14:58:26;;;;;;;4.32;2.10;;;;;;;;;;5053943;28;20042;-71
2023/10/16 15:00:56;;;;;;;4.72;2.70;;;;;;;;;;5052500;28;20029;-72
2023/10/16 15:03:22;;;;;;;5.05;2.78;;;;;;;;;;5053254;28;20029;-72
2023/10/16 15:05:49;;;;;;;7.95;3.53;;;;;;;;;;5017853;28;20099;-72
2023/10/16 15:08:15;;;;;;;5.35;3.65;;;;;;;;;;5033872;28;20389;-71
2023/10/16 15:10:45;;;;;;;8.05;4.43;;;;;;;;;;5016362;28;20040;-70
2023/10/16 15:13:12;;;;;;;7.72;4.40;;;;;;;;;;5034150;28;20033;-70
2023/10/16 15:15:39;;;;;;;7.45;4.35;;;;;;;;;;5016073;28;20029;-71
2023/10/16 15:18:05;;;;;;;5.82;3.25;;;;;;;;;;5015837;28;20057;-70
2023/10/16 15:20:31;;;;;;;5.05;2.95;;;;;;;;;;5033611;28;20014;-70
2023/10/16 15:22:56;;;;;;;3.92;2.70;;;;;;;;;;5033735;28;20030;-72
2023/10/16 15:25:22;;;;;;;3.13;2.72;;;;;;;;;;5034299;28;20372;-71
2023/10/16 15:27:47;;;;;;;5.78;3.35;;;;;;;;;;5032848;28;20156;-72
2023/10/16 15:30:13;;;;;;;4.82;3.03;;;;;;;;;;5034243;28;20098;-70
2023/10/16 15:32:39;;;;;;;4.70;3.03;;;;;;;;;;5033508;28;20041;-70
2023/10/16 15:35:08;;;;;;;5.97;2.65;;;;;;;;;;5015842;28;20033;-66
2023/10/16 15:37:40;;;;;;;4.25;2.78;;;;;;;;;;5030122;28;20026;-71
2023/10/16 15:40:06;;;;;;;4.20;2.40;;;;;;;;;;5003602;28;20025;-70
2023/10/16 15:42:32;;;;;;;4.50;2.60;;;;;;;;;;5006484;28;20029;-73
2023/10/16 15:45:01;;;;;;;3.42;2.60;;;;;;;;;;5004490;28;20049;-70
2023/10/16 15:47:29;;;;;;;4.70;3.00;;;;;;;;;;5024669;28;20026;-70
2023/10/16 15:49:58;;;;;;;4.55;2.75;;;;;;;;;;5026629;28;20044;-70
2023/10/16 15:52:23;;;;;;;3.28;2.72;;;;;;;;;;5037346;28;20091;-71
2023/10/16 15:54:49;;;;;;;5.75;2.80;;;;;;;;;;5021053;28;20018;-71
2023/10/16 15:57:15;;;;;;;7.13;3.33;;;;;;;;;;5017295;28;20041;-71
2023/10/16 15:59:40;;;;;;;5.60;3.88;;;;;;;;;;5017635;28;20060;-72
2023/10/16 16:02:05;;;;;;;5.75;3.90;;;;;;;;;;5000332;28;20102;-72
2023/10/16 16:04:31;;;;;;;5.65;4.03;;;;;;;;;;5025088;28;20484;-72
2023/10/16 16:07:01;;;;;;;6.65;4.13;;;;;;;;;;5036893;28;20040;-70
2023/10/16 16:09:29;;;;;;;4.95;3.55;;;;;;;;;;5037038;28;20108;-72
2023/10/16 16:11:55;;;;;;;4.95;3.63;;;;;;;;;;5019259;28;20103;-71
2023/10/16 16:14:21;;;;;;;5.00;3.63;;;;;;;;;;5037105;28;20022;-71
2023/10/16 16:16:50;;;;;;;6.13;4.03;;;;;;;;;;5034336;28;20120;-70
2023/10/16 16:19:15;;;;;;;7.18;3.75;;;;;;;;;;5035908;28;20467;-71
2023/10/16 16:21:40;;;;;;;5.18;4.47;;;;;;;;;;5034290;28;20029;-72
2023/10/16 16:24:06;;;;;;;6.75;5.10;;;;;;;;;;5033903;28;20464;-72
2023/10/16 16:26:32;;;;;;;7.13;5.10;;;;;;;;;;5018753;28;20025;-72
2023/10/16 16:28:59;;;;;;;8.88;5.40;;;;;;;;;;5035928;28;20029;-74
2023/10/16 16:31:25;;;;;;;9.48;5.70;;;;;;;;;;5034892;28;20379;-71
2023/10/16 16:33:53;;;;;;;7.95;5.03;;;;;;;;;;5035004;28;20456;-77